createdAt,value
2023-03-15T00:01:19.172Z,12.40
2023-03-15T00:03:48.315Z,15.80
2023-03-15T00:06:17.821Z,14.00
2023-03-15T00:08:47.734Z,15.40
2023-03-15T00:11:18.942Z,16.00
2023-03-15T00:13:48.716Z,15.00
2023-03-15T00:16:18.656Z,15.80
2023-03-15T00:18:47.792Z,13.80
2023-03-15T00:21:17.035Z,14.20
2023-03-15T00:23:45.865Z,15.40
2023-03-15T00:26:15.273Z,15.20
2023-03-15T00:28:45.217Z,14.00
2023-03-15T00:31:16.774Z,16.20
2023-03-15T00:33:47.370Z,16.40
2023-03-15T00:36:17.581Z,13.40
2023-03-15T00:38:46.174Z,15.00
2023-03-15T00:41:17.376Z,13.80
2023-03-15T00:43:48.222Z,15.20
2023-03-15T00:46:18.669Z,14.40
2023-03-15T00:48:49.853Z,16.60
2023-03-15T00:51:21.301Z,19.40
2023-03-15T00:53:51.728Z,16.00
2023-03-15T00:56:22.696Z,15.50
2023-03-15T00:58:54.014Z,17.50
2023-03-15T01:01:25.968Z,18.20
2023-03-15T01:03:55.412Z,22.25
2023-03-15T01:06:29.049Z,19.60
2023-03-15T01:08:58.064Z,22.00
2023-03-15T01:11:29.344Z,23.25
2023-03-15T01:14:00.602Z,21.00
2023-03-15T01:16:29.809Z,22.25
2023-03-15T01:18:58.897Z,21.75
2023-03-15T01:21:28.340Z,19.25
2023-03-15T01:23:57.040Z,23.00
2023-03-15T01:26:26.025Z,23.25
2023-03-15T01:28:55.424Z,20.00
2023-03-15T01:31:28.417Z,18.00
2023-03-15T01:33:57.716Z,23.00
2023-03-15T01:36:28.789Z,22.50
2023-03-15T01:38:57.979Z,23.25
2023-03-15T01:41:32.489Z,21.25
2023-03-15T01:44:01.086Z,23.00
2023-03-15T01:46:34.792Z,23.00
2023-03-15T01:49:23.204Z,21.75
2023-03-15T01:51:56.599Z,23.75
2023-03-15T01:54:30.743Z,23.00
2023-03-15T01:57:05.275Z,23.50
2023-03-15T01:59:40.126Z,22.00
2023-03-15T02:02:15.163Z,23.00
2023-03-15T02:04:47.981Z,24.00
2023-03-15T02:07:21.830Z,24.75
2023-03-15T02:09:59.585Z,24.00
2023-03-15T02:12:32.051Z,23.00
2023-03-15T02:15:03.061Z,25.00
2023-03-15T02:17:38.321Z,23.00
2023-03-15T02:20:19.869Z,15.25
2023-03-15T02:22:53.860Z,23.75
2023-03-15T02:25:30.334Z,25.75
2023-03-15T02:28:01.027Z,26.50
2023-03-15T02:30:29.887Z,24.00
2023-03-15T02:33:00.855Z,24.75
2023-03-15T02:35:32.886Z,23.75
2023-03-15T02:38:02.845Z,24.00
2023-03-15T02:40:33.338Z,26.00
2023-03-15T02:43:08.248Z,23.75
2023-03-15T02:45:39.369Z,26.75
2023-03-15T02:48:11.203Z,25.75
2023-03-15T02:50:40.098Z,26.00
2023-03-15T02:53:09.815Z,26.25
2023-03-15T02:55:38.384Z,26.00
2023-03-15T02:58:08.644Z,23.25
2023-03-15T03:00:37.237Z,25.75
2023-03-15T03:03:06.299Z,24.25
2023-03-15T03:05:34.982Z,26.00
2023-03-15T03:08:04.238Z,23.75
2023-03-15T03:10:33.061Z,24.75
2023-03-15T03:13:03.138Z,25.25
2023-03-15T03:15:36.724Z,27.00
2023-03-15T03:18:06.073Z,26.25
2023-03-15T03:20:34.706Z,25.50
2023-03-15T03:23:06.178Z,26.00
2023-03-15T03:25:36.762Z,24.75
2023-03-15T03:28:05.851Z,25.25
2023-03-15T03:30:37.688Z,24.75
2023-03-15T03:33:06.710Z,21.50
2023-03-15T03:35:35.300Z,26.00
2023-03-15T03:38:04.288Z,26.00
2023-03-15T03:40:38.653Z,24.75
2023-03-15T03:43:10.255Z,23.25
2023-03-15T03:45:40.381Z,25.50
2023-03-15T03:48:11.519Z,24.00
2023-03-15T03:50:40.236Z,24.00
2023-03-15T03:53:09.052Z,18.25
2023-03-15T03:55:39.518Z,12.75
2023-03-15T03:58:08.509Z,20.25
2023-03-15T04:00:43.958Z,23.25
2023-03-15T04:03:13.102Z,22.00
2023-03-15T04:05:46.491Z,24.00
2023-03-15T04:08:19.769Z,23.25
2023-03-15T04:10:51.630Z,21.75
2023-03-15T04:13:21.070Z,24.00
2023-03-15T04:15:57.675Z,22.00
2023-03-15T04:18:29.919Z,20.50
2023-03-15T04:20:58.937Z,22.25
2023-03-15T04:23:28.490Z,22.00
2023-03-15T04:26:17.336Z,33.50
2023-03-15T04:29:12.283Z,24.00
2023-03-15T04:32:18.151Z,20.50
2023-03-15T04:34:56.022Z,20.25
2023-03-15T04:37:39.650Z,18.00
2023-03-15T04:40:36.101Z,21.50
2023-03-15T04:43:30.917Z,22.50
2023-03-15T04:46:18.725Z,27.75
2023-03-15T04:49:05.231Z,30.50
2023-03-15T04:51:48.008Z,25.00
2023-03-15T04:54:42.772Z,23.25
2023-03-15T04:57:33.248Z,20.75
2023-03-15T05:00:33.928Z,21.60
2023-03-15T05:03:05.588Z,20.25
2023-03-15T05:06:08.076Z,29.50
2023-03-15T05:08:57.362Z,25.00
2023-03-15T05:11:47.418Z,22.00
2023-03-15T05:14:33.901Z,19.75
2023-03-15T05:17:22.668Z,20.25
2023-03-15T05:20:15.692Z,17.25
2023-03-15T05:22:54.369Z,19.50
2023-03-15T05:25:58.970Z,28.50
2023-03-15T05:28:53.505Z,24.50
2023-03-15T05:31:37.002Z,34.50
2023-03-15T05:34:18.635Z,20.50
2023-03-15T05:36:47.910Z,20.75
2023-03-15T05:39:42.566Z,18.50
2023-03-15T05:42:32.218Z,22.25
2023-03-15T05:45:19.787Z,18.00
2023-03-15T05:48:22.069Z,20.00
2023-03-15T05:51:14.104Z,18.25
2023-03-15T05:54:01.890Z,20.75
2023-03-15T05:57:01.527Z,22.00
2023-03-15T05:59:38.878Z,23.00
2023-03-15T06:02:11.825Z,20.50
2023-03-15T06:04:56.393Z,26.00
2023-03-15T06:07:28.335Z,22.25
2023-03-15T06:09:57.358Z,18.25
2023-03-15T06:12:28.783Z,21.00
2023-03-15T06:14:57.832Z,25.50
2023-03-15T06:17:27.123Z,25.00
2023-03-15T06:19:56.012Z,20.75
2023-03-15T06:22:24.824Z,25.00
2023-03-15T06:25:02.400Z,21.25
2023-03-15T06:27:32.932Z,25.00
2023-03-15T06:30:02.077Z,24.25
2023-03-15T06:32:31.037Z,24.25
2023-03-15T06:35:00.218Z,25.00
2023-03-15T06:37:35.100Z,21.00
2023-03-15T06:40:08.452Z,24.50
2023-03-15T06:42:39.936Z,25.75
2023-03-15T06:45:11.246Z,19.00
2023-03-15T06:47:40.466Z,20.75
2023-03-15T06:50:11.138Z,8.25
2023-03-15T06:52:40.635Z,24.25
2023-03-15T06:55:12.532Z,26.25
2023-03-15T06:57:44.798Z,24.75
2023-03-15T07:00:14.951Z,25.50
2023-03-15T07:02:44.042Z,29.25
2023-03-15T07:05:13.073Z,25.00
2023-03-15T07:07:42.044Z,24.50
2023-03-15T07:10:12.185Z,26.75
2023-03-15T07:12:40.809Z,20.75
2023-03-15T07:15:13.654Z,21.25
2023-03-15T07:17:43.146Z,22.00
2023-03-15T07:20:13.210Z,24.50
2023-03-15T07:22:41.816Z,17.75
2023-03-15T07:25:11.250Z,17.00
2023-03-15T07:27:39.803Z,18.75
2023-03-15T07:30:10.309Z,22.50
2023-03-15T07:32:40.466Z,24.75
2023-03-15T07:35:13.005Z,17.00
2023-03-15T07:37:44.728Z,22.75
2023-03-15T07:40:16.232Z,22.75
2023-03-15T07:42:45.113Z,24.00
2023-03-15T07:45:15.519Z,20.50
2023-03-15T07:47:45.808Z,19.75
2023-03-15T07:50:17.180Z,20.50
2023-03-15T07:52:45.964Z,18.50
2023-03-15T07:55:15.266Z,18.75
2023-03-15T07:57:43.982Z,24.75
2023-03-15T08:00:14.651Z,19.00
2023-03-15T08:02:43.357Z,14.00
2023-03-15T08:05:13.885Z,25.00
2023-03-15T08:07:42.498Z,19.25
2023-03-15T08:10:13.622Z,20.00
2023-03-15T08:12:43.408Z,16.50
2023-03-15T08:15:13.216Z,19.50
2023-03-15T08:17:43.411Z,20.00
2023-03-15T08:20:17.652Z,19.00
2023-03-15T08:22:46.648Z,20.00
2023-03-15T08:25:18.050Z,19.50
2023-03-15T08:27:47.049Z,21.50
2023-03-15T08:30:17.060Z,20.75
2023-03-15T08:32:47.686Z,20.00
2023-03-15T08:35:20.458Z,17.00
2023-03-15T08:37:49.888Z,23.75
2023-03-15T08:40:24.951Z,21.25
2023-03-15T08:42:54.755Z,22.25
2023-03-15T08:45:25.078Z,22.25
2023-03-15T08:47:57.164Z,20.50
2023-03-15T08:50:28.550Z,22.00
2023-03-15T08:52:57.437Z,12.50
2023-03-15T08:55:26.400Z,18.75
2023-03-15T08:57:54.956Z,19.50
2023-03-15T09:00:24.647Z,18.75
2023-03-15T09:02:53.435Z,21.75
2023-03-15T09:05:23.962Z,20.00
2023-03-15T09:07:54.155Z,19.25
2023-03-15T09:10:23.600Z,21.25
2023-03-15T09:12:54.119Z,17.60
2023-03-15T09:15:23.129Z,18.75
2023-03-15T09:17:52.427Z,18.00
2023-03-15T09:20:23.056Z,18.00
2023-03-15T09:22:55.478Z,17.50
2023-03-15T09:25:25.867Z,12.60
2023-03-15T09:27:54.509Z,17.00
2023-03-15T09:30:23.827Z,14.00
2023-03-15T09:32:52.885Z,12.40
2023-03-15T09:35:22.664Z,8.60
2023-03-15T09:37:52.238Z,11.00
2023-03-15T09:40:25.815Z,11.20
2023-03-15T09:43:02.587Z,11.80
2023-03-15T09:45:52.079Z,9.60
2023-03-15T09:48:27.278Z,10.20
2023-03-15T09:51:01.437Z,11.60
2023-03-15T09:53:35.053Z,11.20
2023-03-15T09:56:10.625Z,12.80
2023-03-15T09:58:41.645Z,11.00
2023-03-15T10:01:15.675Z,8.60
2023-03-15T10:03:49.273Z,11.00
2023-03-15T10:06:22.869Z,12.00
2023-03-15T10:08:55.586Z,12.80
2023-03-15T10:11:32.514Z,10.20
2023-03-15T10:14:19.318Z,16.80
2023-03-15T10:16:50.075Z,15.20
2023-03-15T10:19:29.330Z,9.20
2023-03-15T10:22:04.162Z,11.40
2023-03-15T10:24:39.034Z,11.60
2023-03-15T10:27:21.009Z,12.20
2023-03-15T10:29:51.772Z,12.60
2023-03-15T10:32:27.153Z,12.00
2023-03-15T10:34:59.693Z,12.00
2023-03-15T10:37:28.898Z,13.00
2023-03-15T10:40:00.256Z,14.40
2023-03-15T10:42:32.950Z,12.80
2023-03-15T10:45:14.195Z,16.20
2023-03-15T10:47:53.983Z,5.20
2023-03-15T10:50:28.896Z,12.60
2023-03-15T10:52:59.675Z,16.20
2023-03-15T10:55:34.279Z,16.00
2023-03-15T10:58:25.739Z,14.20
2023-03-15T11:01:00.717Z,19.50
2023-03-15T11:03:30.350Z,15.75
2023-03-15T11:06:00.740Z,14.40
2023-03-15T11:08:39.933Z,16.20
2023-03-15T11:11:09.870Z,18.75
2023-03-15T11:13:41.912Z,14.00
2023-03-15T11:16:22.584Z,17.00
2023-03-15T11:18:57.362Z,18.25
2023-03-15T11:21:33.581Z,14.25
2023-03-15T11:24:05.730Z,20.50
2023-03-15T11:26:37.590Z,15.75
2023-03-15T11:29:16.184Z,16.00
2023-03-15T11:31:46.314Z,19.50
2023-03-15T11:34:23.459Z,20.25
2023-03-15T11:37:07.552Z,19.50
2023-03-15T11:39:45.723Z,24.50
2023-03-15T11:42:29.694Z,23.00
2023-03-15T11:45:05.730Z,19.25
2023-03-15T11:47:43.456Z,19.25
2023-03-15T11:50:15.958Z,16.00
2023-03-15T11:52:49.031Z,17.25
2023-03-15T11:55:21.332Z,13.75
2023-03-15T11:57:51.144Z,17.50
2023-03-15T12:00:49.196Z,15.20
2023-03-15T12:03:41.464Z,15.25
2023-03-15T12:06:39.078Z,15.50
2023-03-15T12:09:41.000Z,14.75
2023-03-15T12:12:38.097Z,19.00
2023-03-15T12:15:17.092Z,14.50
2023-03-15T12:17:52.183Z,16.25
2023-03-15T12:20:28.891Z,19.00
2023-03-15T12:23:21.908Z,21.25
2023-03-15T12:25:57.382Z,14.25
2023-03-15T12:28:31.645Z,15.75
2023-03-15T12:31:03.134Z,22.00
2023-03-15T12:33:44.718Z,22.00
2023-03-15T12:36:21.336Z,18.75
2023-03-15T12:39:02.408Z,16.25
2023-03-15T12:41:41.314Z,15.25
2023-03-15T12:44:25.375Z,18.50
2023-03-15T12:47:00.093Z,14.00
2023-03-15T12:49:36.775Z,13.75
2023-03-15T12:52:07.518Z,22.00
2023-03-15T12:54:42.963Z,17.25
2023-03-15T12:57:13.196Z,17.25
2023-03-15T12:59:49.524Z,22.00
2023-03-15T13:02:42.617Z,22.75
2023-03-15T13:05:24.521Z,23.00
2023-03-15T13:08:18.905Z,24.00
2023-03-15T13:11:12.544Z,25.00
2023-03-15T13:14:06.533Z,16.50
2023-03-15T13:16:40.280Z,19.75
2023-03-15T13:19:20.222Z,17.00
2023-03-15T13:22:03.979Z,17.75
2023-03-15T13:24:43.604Z,21.00
2023-03-15T13:27:29.645Z,17.75
2023-03-15T13:29:58.335Z,20.75
2023-03-15T13:32:27.384Z,25.00
2023-03-15T13:34:58.679Z,24.00
2023-03-15T13:37:31.881Z,19.75
2023-03-15T13:40:03.611Z,22.75
2023-03-15T13:42:32.834Z,18.00
2023-03-15T13:45:20.376Z,15.00
2023-03-15T13:47:49.277Z,20.50
2023-03-15T13:50:20.984Z,15.50
2023-03-15T13:52:51.390Z,15.50
2023-03-15T13:55:25.252Z,15.00
2023-03-15T13:57:58.032Z,12.75
2023-03-15T14:00:27.823Z,22.25
2023-03-15T14:03:01.945Z,19.00
2023-03-15T14:05:36.057Z,14.50
2023-03-15T14:08:16.828Z,14.25
2023-03-15T14:10:58.526Z,17.75
2023-03-15T14:13:32.245Z,14.50
2023-03-15T14:16:04.414Z,15.40
2023-03-15T14:18:37.386Z,12.25
2023-03-15T14:21:12.565Z,15.25
2023-03-15T14:23:44.852Z,14.25
2023-03-15T14:26:18.641Z,14.75
2023-03-15T14:28:55.930Z,13.25
2023-03-15T14:31:27.629Z,14.75
2023-03-15T14:34:01.036Z,15.80
2023-03-15T14:36:35.469Z,13.33
2023-03-15T14:39:06.664Z,13.50
2023-03-15T14:41:36.230Z,15.25
2023-03-15T14:44:05.394Z,12.20
2023-03-15T14:46:34.338Z,13.20
2023-03-15T14:49:03.576Z,13.00
2023-03-15T14:51:33.570Z,15.25
2023-03-15T14:54:02.780Z,14.75
2023-03-15T14:56:36.891Z,16.60
2023-03-15T14:59:12.573Z,14.50
2023-03-15T15:01:52.806Z,14.20
2023-03-15T15:04:22.957Z,13.20
2023-03-15T15:06:52.275Z,14.00
2023-03-15T15:09:24.986Z,15.00
2023-03-15T15:11:56.072Z,15.50
2023-03-15T15:14:25.087Z,13.00
2023-03-15T15:16:53.888Z,17.25
2023-03-15T15:19:22.844Z,23.00
2023-03-15T15:21:52.530Z,13.00
2023-03-15T15:24:26.670Z,8.75
2023-03-15T15:26:56.788Z,12.25
2023-03-15T15:29:25.768Z,9.50
2023-03-15T15:31:54.612Z,10.60
2023-03-15T15:34:23.854Z,4.75
2023-03-15T15:36:53.219Z,9.00
2023-03-15T15:39:24.754Z,8.75
2023-03-15T15:41:53.437Z,6.80
2023-03-15T15:44:25.696Z,5.40
2023-03-15T15:46:54.789Z,5.00
2023-03-15T15:49:24.179Z,4.60
2023-03-15T15:51:52.853Z,2.80
2023-03-15T15:54:26.697Z,5.00
2023-03-15T15:56:58.724Z,4.00
2023-03-15T15:59:30.825Z,6.00
2023-03-15T16:02:01.552Z,4.40
2023-03-15T16:04:32.907Z,5.40
2023-03-15T16:07:04.105Z,6.60
2023-03-15T16:09:36.600Z,4.00
2023-03-15T16:12:13.777Z,5.20
2023-03-15T16:14:44.754Z,7.20
2023-03-15T16:17:18.634Z,4.00
2023-03-15T16:19:49.347Z,9.60
2023-03-15T16:22:19.987Z,4.60
2023-03-15T16:24:52.867Z,4.60
2023-03-15T16:27:26.263Z,5.00
2023-03-15T16:29:57.229Z,4.00
2023-03-15T16:32:42.935Z,2.00
2023-03-15T16:35:15.594Z,5.00
2023-03-15T16:37:45.511Z,5.00
2023-03-15T16:40:23.136Z,4.00
2023-03-15T16:42:51.867Z,7.40
2023-03-15T16:45:24.050Z,7.50
2023-03-15T16:47:53.288Z,8.20
2023-03-15T16:50:22.466Z,8.00
2023-03-15T16:52:55.889Z,4.80
2023-03-15T16:55:27.538Z,2.80
2023-03-15T16:57:58.024Z,7.00
2023-03-15T17:00:31.578Z,10.00
2023-03-15T17:03:01.883Z,9.50
2023-03-15T17:05:33.609Z,12.50
2023-03-15T17:08:02.378Z,4.75
2023-03-15T17:10:33.083Z,6.60
2023-03-15T17:13:03.451Z,7.20
2023-03-15T17:15:33.930Z,6.60
2023-03-15T17:18:02.830Z,7.00
2023-03-15T17:20:32.532Z,2.00
2023-03-15T17:23:04.828Z,2.00
2023-03-15T17:25:34.668Z,4.00
2023-03-15T17:28:04.876Z,4.00
2023-03-15T17:30:37.194Z,8.50
2023-03-15T17:33:06.420Z,6.60
2023-03-15T17:35:37.738Z,4.25
2023-03-15T17:38:08.761Z,6.20
2023-03-15T17:40:37.906Z,3.60
2023-03-15T17:43:06.540Z,5.80
2023-03-15T17:45:36.734Z,2.00
2023-03-15T17:48:05.574Z,4.00
2023-03-15T17:50:36.152Z,4.00
2023-03-15T17:53:07.607Z,2.00
2023-03-15T17:55:36.609Z,4.00
2023-03-15T17:58:11.557Z,5.40
2023-03-15T18:00:43.545Z,5.00
2023-03-15T18:03:14.511Z,4.00
2023-03-15T18:05:43.794Z,3.60
2023-03-15T18:08:12.684Z,4.60
2023-03-15T18:10:43.120Z,5.80
2023-03-15T18:13:15.056Z,12.25
2023-03-15T18:15:46.854Z,7.25
2023-03-15T18:18:16.200Z,5.00
2023-03-15T18:20:47.454Z,5.00
2023-03-15T18:23:18.538Z,7.00
2023-03-15T18:25:48.613Z,7.00
2023-03-15T18:28:17.313Z,16.50
2023-03-15T18:30:47.649Z,8.25
2023-03-15T18:33:17.718Z,5.00
2023-03-15T18:35:46.693Z,9.50
2023-03-15T18:38:17.510Z,7.00
2023-03-15T18:40:46.478Z,9.25
2023-03-15T18:43:15.880Z,10.50
2023-03-15T18:45:44.987Z,7.00
2023-03-15T18:48:14.993Z,9.00
2023-03-15T18:50:44.948Z,9.00
2023-03-15T18:53:13.902Z,9.50
2023-03-15T18:55:44.753Z,7.75
2023-03-15T18:58:14.596Z,5.20
2023-03-15T19:00:44.180Z,7.00
2023-03-15T19:03:14.406Z,5.60
2023-03-15T19:05:43.579Z,2.40
2023-03-15T19:08:12.303Z,6.50
2023-03-15T19:10:42.496Z,9.50
2023-03-15T19:13:10.986Z,6.40
2023-03-15T19:15:39.903Z,6.60
2023-03-15T19:18:08.695Z,5.20
2023-03-15T19:20:39.103Z,6.80
2023-03-15T19:23:07.901Z,6.80
2023-03-15T19:25:36.922Z,7.20
2023-03-15T19:28:05.922Z,6.40
2023-03-15T19:30:35.122Z,6.80
2023-03-15T19:33:03.880Z,7.00
2023-03-15T19:35:33.720Z,7.40
2023-03-15T19:38:04.162Z,7.25
2023-03-15T19:40:33.068Z,7.00
2023-03-15T19:43:01.974Z,4.00
2023-03-15T19:45:31.092Z,8.00
2023-03-15T19:47:59.791Z,7.50
2023-03-15T19:50:31.149Z,8.00
2023-03-15T19:52:59.870Z,11.00
2023-03-15T19:55:31.719Z,7.20
2023-03-15T19:58:00.496Z,7.00
2023-03-15T20:00:29.364Z,7.25
2023-03-15T20:02:57.977Z,8.50
2023-03-15T20:05:27.278Z,11.00
2023-03-15T20:07:56.016Z,7.60
2023-03-15T20:10:25.138Z,4.80
2023-03-15T20:12:59.010Z,8.50
2023-03-15T20:15:29.504Z,8.50
2023-03-15T20:17:58.344Z,10.00
2023-03-15T20:20:27.392Z,10.20
2023-03-15T20:22:56.176Z,12.00
2023-03-15T20:25:25.392Z,11.25
2023-03-15T20:27:56.718Z,7.25
2023-03-15T20:30:25.789Z,10.00
2023-03-15T20:32:54.709Z,11.00
2023-03-15T20:35:24.623Z,12.50
2023-03-15T20:37:53.677Z,8.80
2023-03-15T20:40:23.522Z,10.75
2023-03-15T20:42:52.330Z,11.00
2023-03-15T20:45:22.642Z,11.75
2023-03-15T20:47:51.252Z,10.50
2023-03-15T20:50:20.615Z,9.20
2023-03-15T20:52:49.485Z,7.00
2023-03-15T20:55:18.598Z,5.00
2023-03-15T20:57:47.250Z,6.50
2023-03-15T21:00:18.584Z,11.00
2023-03-15T21:02:49.346Z,9.00
2023-03-15T21:05:19.003Z,10.00
2023-03-15T21:07:47.788Z,7.60
2023-03-15T21:10:18.468Z,6.50
2023-03-15T21:12:47.012Z,7.50
2023-03-15T21:15:18.033Z,10.00
2023-03-15T21:17:49.194Z,7.20
2023-03-15T21:20:18.883Z,5.20
2023-03-15T21:22:47.734Z,5.00
2023-03-15T21:25:17.173Z,7.20
2023-03-15T21:27:45.909Z,5.00
2023-03-15T21:30:15.395Z,7.00
2023-03-15T21:32:45.085Z,6.20
2023-03-15T21:35:17.185Z,7.00
2023-03-15T21:37:46.365Z,5.40
2023-03-15T21:40:17.022Z,7.00
2023-03-15T21:42:47.900Z,5.20
2023-03-15T21:45:17.036Z,4.80
2023-03-15T21:47:47.810Z,2.40
2023-03-15T21:50:18.307Z,4.00
2023-03-15T21:52:47.019Z,4.00
2023-03-15T21:55:16.494Z,4.20
2023-03-15T21:57:45.621Z,5.00
2023-03-15T22:00:18.596Z,2.20
2023-03-15T22:02:47.733Z,2.00
2023-03-15T22:05:18.351Z,3.20
2023-03-15T22:07:47.092Z,4.00
2023-03-15T22:10:16.206Z,4.00
2023-03-15T22:12:44.932Z,4.00
2023-03-15T22:15:14.506Z,4.00
2023-03-15T22:17:45.266Z,4.20
2023-03-15T22:20:16.868Z,6.20
2023-03-15T22:22:49.041Z,4.00
2023-03-15T22:25:18.882Z,5.00
2023-03-15T22:27:47.626Z,3.60
2023-03-15T22:30:17.866Z,6.60
2023-03-15T22:32:46.966Z,6.60
2023-03-15T22:35:18.075Z,5.20
2023-03-15T22:37:49.913Z,7.20
2023-03-15T22:40:18.958Z,4.00
2023-03-15T22:42:49.685Z,6.60
2023-03-15T22:45:19.281Z,6.80
2023-03-15T22:47:48.430Z,6.25
2023-03-15T22:50:17.939Z,5.80
2023-03-15T22:52:48.476Z,5.80
2023-03-15T22:55:19.161Z,4.40
2023-03-15T22:57:47.987Z,4.00
2023-03-15T23:00:21.719Z,6.00
2023-03-15T23:02:51.264Z,6.60
2023-03-15T23:05:21.293Z,4.60
2023-03-15T23:07:51.483Z,7.40
2023-03-15T23:10:21.034Z,7.40
2023-03-15T23:12:49.471Z,6.40
2023-03-15T23:15:18.362Z,6.60
2023-03-15T23:17:47.189Z,7.80
2023-03-15T23:20:17.845Z,5.80
2023-03-15T23:22:47.041Z,4.80
2023-03-15T23:25:20.405Z,6.60
2023-03-15T23:27:49.354Z,9.00
2023-03-15T23:30:18.624Z,8.75
2023-03-15T23:32:47.140Z,7.00
2023-03-15T23:35:16.504Z,4.40
2023-03-15T23:37:44.980Z,7.50
2023-03-15T23:40:15.765Z,8.50
2023-03-15T23:42:46.013Z,7.80
2023-03-15T23:45:16.448Z,7.75
2023-03-15T23:47:45.343Z,6.80
2023-03-15T23:50:14.724Z,8.80
2023-03-15T23:52:43.490Z,6.40
2023-03-15T23:55:12.604Z,7.20
2023-03-15T23:57:41.531Z,8.60
